Waseca, MN

8:55 AM CDT on April 29, 2017 (GMT -0500)
Waseca Municipal

Weather History for KACQ - December, 2011

Change the Weather History Date:

Saturday, December 3, 2011

  Actual Average Record
Temperature  
Mean Temperature 31 °F -  
Max Temperature 32 °F 27 °F 61 °F (1962)
Min Temperature 30 °F 10 °F -24 °F (1940)
Degree Days  
Heating Degree Days 34    
Moisture  
Dew Point 27 °F    
Average Humidity 83    
Maximum Humidity 87    
Minimum Humidity 69    
Precipitation  
Precipitation 0.00 in - - ()
Sea Level Pressure  
Sea Level Pressure 30.04 in    
Wind  
Wind Speed 9 mph (SW)    
Max Wind Speed 16 mph    
Max Gust Speed 21 mph    
Visibility 5 miles    
Events Snow    
Averages and records for this station are not official NWS values.
T = Trace of Precipitation, MM = Missing Value Source: NWS Daily Summary

Daily Weather History Graph

Daily Weather History Graph

Search for Another Location

Airport or City:

Trip Planner

Search our weather history database for the weather conditions in past years. The results will help you decide how hot, cold, wet, or windy it might be!

Date:

Astronomy

Dec. 03, 2011 Rise Set
Actual Time 7:31 AM CST 4:36 PM CST
Civil Twilight 6:58 AM CST 5:09 PM CST
Nautical Twilight 6:22 AM CST 5:45 PM CST
Astronomical Twilight 5:47 AM CST 6:20 PM CST
Moon 12:52 PM CST (12/3) 12:48 AM CST (12/3)
Length of Visible Light 10h 10m
Length of Day
9h 05m
Waxing Gibbous, 63% of the Moon is Illuminated
Dec 3
Waxing Gibbous
Dec 10
Full
Dec 17
Last Quarter
Dec 24
New
Jan 1
First Quarter

Hourly Weather History & Observations

Time (CST) Temp. Windchill Dew Point Humidity Pressure Visibility Wind Dir Wind Speed Gust Speed Precip Events Conditions
12:15 AM 32.0 °F 22.1 °F 26.6 °F 80% 30.08 in 10.0 mi South 13.8 mph 20.7 mph N/A   Overcast
12:36 AM 32.0 °F 21.2 °F 26.6 °F 80% 30.08 in 7.0 mi South 16.1 mph 19.6 mph N/A   Overcast
12:56 AM 32.0 °F 22.1 °F 26.6 °F 80% 30.07 in 7.0 mi South 13.8 mph 18.4 mph N/A   Overcast
1:16 AM 32.0 °F 21.6 °F 26.6 °F 80% 30.06 in 7.0 mi South 15.0 mph - N/A   Overcast
1:36 AM 32.0 °F 22.1 °F 28.4 °F 87% 30.06 in 7.0 mi South 13.8 mph - N/A   Mostly Cloudy
1:56 AM 32.0 °F 23.0 °F 28.4 °F 87% 30.07 in 7.0 mi South 11.5 mph - N/A   Scattered Clouds
2:16 AM 32.0 °F 24.8 °F 28.4 °F 87% 30.06 in 7.0 mi South 8.1 mph - N/A   Scattered Clouds
2:36 AM 32.0 °F 24.2 °F 28.4 °F 87% 30.07 in 7.0 mi South 9.2 mph - N/A   Clear
2:56 AM 32.0 °F 24.2 °F 28.4 °F 87% 30.07 in 5.0 mi South 9.2 mph - N/A   Haze
3:16 AM 32.0 °F 24.2 °F 28.4 °F 87% 30.06 in 5.0 mi South 9.2 mph - N/A   Haze
3:36 AM 32.0 °F 24.2 °F 28.4 °F 87% 30.06 in 5.0 mi South 9.2 mph - N/A   Haze
3:56 AM 32.0 °F 24.8 °F 28.4 °F 87% 30.06 in 5.0 mi South 8.1 mph - N/A   Haze
4:16 AM 32.0 °F 24.8 °F 28.4 °F 87% 30.06 in 5.0 mi South 8.1 mph - N/A   Haze
4:36 AM 32.0 °F 24.8 °F 28.4 °F 87% 30.06 in 4.0 mi SSW 8.1 mph - N/A   Clear
4:56 AM 32.0 °F 24.2 °F 28.4 °F 87% 30.06 in 4.0 mi SSW 9.2 mph - N/A   Clear
5:16 AM 30.2 °F 22.6 °F 26.6 °F 86% 30.06 in 4.0 mi SSW 8.1 mph - N/A   Clear
5:36 AM 30.2 °F 22.6 °F 26.6 °F 86% 30.06 in 4.0 mi SSW 8.1 mph - N/A   Clear
5:56 AM 30.2 °F 24.3 °F 26.6 °F 86% 30.07 in 4.0 mi SSW 5.8 mph - N/A   Clear
6:16 AM 30.2 °F 24.3 °F 26.6 °F 86% 30.07 in 4.0 mi SSW 5.8 mph - N/A   Clear
6:36 AM 30.2 °F 24.3 °F 26.6 °F 86% 30.07 in 4.0 mi SSW 5.8 mph - N/A   Clear
6:56 AM 30.2 °F 24.3 °F 26.6 °F 86% 30.07 in 4.0 mi SSW 5.8 mph - N/A   Clear
7:16 AM 30.2 °F 22.6 °F 26.6 °F 86% 30.08 in 5.0 mi SSW 8.1 mph - N/A   Clear
7:36 AM 30.2 °F 23.4 °F 26.6 °F 86% 30.08 in 4.0 mi SSW 6.9 mph - N/A   Clear
7:57 AM 30.2 °F 23.4 °F 26.6 °F 86% 30.08 in 4.0 mi SSW 6.9 mph - N/A   Clear
8:16 AM 30.2 °F 23.4 °F 26.6 °F 86% 30.09 in 4.0 mi SSW 6.9 mph - N/A   Clear
8:56 AM 30.2 °F 25.4 °F 26.6 °F 86% 30.08 in 5.0 mi SW 4.6 mph - N/A   Haze
9:16 AM 30.2 °F 23.4 °F 26.6 °F 86% 30.09 in 5.0 mi SW 6.9 mph - N/A   Haze
9:36 AM 32.0 °F 26.4 °F 28.4 °F 87% 30.09 in 5.0 mi SW 5.8 mph - N/A   Haze
9:57 AM 32.0 °F 26.4 °F 26.6 °F 80% 30.09 in 7.0 mi SW 5.8 mph - N/A   Scattered Clouds
10:16 AM 32.0 °F 27.5 °F 26.6 °F 80% 30.09 in 7.0 mi WSW 4.6 mph - N/A   Scattered Clouds
10:36 AM 32.0 °F 27.5 °F 26.6 °F 80% 30.08 in 7.0 mi SSW 4.6 mph - N/A   Scattered Clouds
10:56 AM 32.0 °F 26.4 °F 24.8 °F 75% 30.07 in 7.0 mi South 5.8 mph - N/A   Scattered Clouds
11:16 AM 32.0 °F 26.4 °F 24.8 °F 75% 30.08 in 7.0 mi South 5.8 mph - N/A   Overcast
11:36 AM 32.0 °F 26.4 °F 24.8 °F 75% 30.07 in 7.0 mi South 5.8 mph - N/A   Overcast
11:57 AM 32.0 °F - 24.8 °F 75% 30.04 in 10.0 mi Calm Calm - N/A   Overcast
12:16 PM 32.0 °F 28.7 °F 23.0 °F 69% 30.03 in 10.0 mi West 3.5 mph - N/A   Overcast
12:36 PM 32.0 °F - 23.0 °F 69% 30.01 in 10.0 mi Calm Calm - N/A   Overcast
12:57 PM 32.0 °F 28.7 °F 23.0 °F 69% 30.02 in 10.0 mi SW 3.5 mph - N/A   Overcast
1:16 PM 32.0 °F 28.7 °F 24.8 °F 75% 30.01 in 10.0 mi WSW 3.5 mph - N/A   Overcast
1:36 PM 32.0 °F 28.7 °F 24.8 °F 75% 30.01 in 1.5 mi WSW 3.5 mph - N/A Snow Light Snow
1:57 PM 32.0 °F - 26.6 °F 80% 30.00 in 0.5 mi Calm Calm - N/A Snow Snow
2:16 PM 30.2 °F - 26.6 °F 86% 30.01 in 0.5 mi Calm Calm - N/A Snow Light Snow
2:36 PM 30.2 °F - 26.6 °F 86% 30.00 in 0.2 mi Calm Calm - N/A Snow Snow
2:57 PM 30.2 °F 26.7 °F 26.6 °F 86% 30.00 in 0.5 mi West 3.5 mph - N/A Snow Snow
3:16 PM 30.2 °F 25.4 °F 26.6 °F 86% 30.01 in 0.5 mi West 4.6 mph - N/A Snow Snow
3:37 PM 30.2 °F 26.7 °F 26.6 °F 86% 30.00 in 0.5 mi NW 3.5 mph - N/A Snow Snow
3:56 PM 30.2 °F 25.4 °F 26.6 °F 86% 29.98 in 0.2 mi NW 4.6 mph - N/A Snow Heavy Snow
4:16 PM 30.2 °F 25.4 °F 26.6 °F 86% 29.99 in 0.2 mi NW 4.6 mph - N/A Snow Snow
4:36 PM 30.2 °F 23.4 °F 26.6 °F 86% 29.99 in 0.5 mi NW 6.9 mph - N/A Snow Snow
4:56 PM 30.2 °F 23.4 °F 26.6 °F 86% 29.98 in 1.0 mi NW 6.9 mph - N/A Snow Light Snow
5:17 PM 30.2 °F 23.4 °F 26.6 °F 86% 29.98 in 1.8 mi NNW 6.9 mph - N/A Snow Light Snow
5:36 PM 30.2 °F 24.3 °F 26.6 °F 86% 29.97 in 2.5 mi NNW 5.8 mph - N/A Snow Light Snow
5:56 PM 30.2 °F 23.4 °F 26.6 °F 86% 29.96 in 2.5 mi NNW 6.9 mph - N/A Snow Light Snow
6:17 PM 30.2 °F 22.6 °F 26.6 °F 86% 29.97 in 2.0 mi NNW 8.1 mph - N/A Snow Light Snow
6:36 PM 30.2 °F 23.4 °F 26.6 °F 86% 29.97 in 2.0 mi NNW 6.9 mph - N/A Snow Light Snow
6:56 PM 30.2 °F 21.9 °F 26.6 °F 86% 29.97 in 3.0 mi NNW 9.2 mph - N/A Snow Light Snow
7:16 PM 30.2 °F 21.3 °F 26.6 °F 86% 29.97 in 4.0 mi NNW 10.4 mph - N/A Snow Light Snow
7:37 PM 30.2 °F 20.8 °F 26.6 °F 86% 29.97 in 7.0 mi NNW 11.5 mph - N/A Snow Light Snow
7:57 PM 30.2 °F 21.3 °F 26.6 °F 86% 29.97 in 7.0 mi North 10.4 mph - N/A Snow Light Snow
8:16 PM 30.2 °F 20.8 °F 26.6 °F 86% 29.96 in 3.0 mi NNW 11.5 mph - N/A Snow Light Snow
8:36 PM 30.2 °F 21.3 °F 26.6 °F 86% 29.96 in 4.0 mi NNW 10.4 mph - N/A Snow Light Snow
8:56 PM 30.2 °F 21.3 °F 26.6 °F 86% 29.96 in 2.0 mi NNW 10.4 mph - N/A Snow Light Snow
9:16 PM 30.2 °F 20.8 °F 26.6 °F 86% 29.95 in 2.5 mi NNW 11.5 mph - N/A Snow Light Snow
9:36 PM 30.2 °F 19.8 °F 26.6 °F 86% 29.95 in 2.5 mi NNW 13.8 mph - N/A Snow Light Snow
9:56 PM 30.2 °F 20.2 °F 26.6 °F 86% 29.94 in 3.0 mi NNW 12.7 mph - N/A Snow Light Snow
10:16 PM 30.2 °F 19.3 °F 26.6 °F 86% 29.94 in 4.0 mi NNW 15.0 mph - N/A Snow Light Snow
10:36 PM 30.2 °F 20.2 °F 26.6 °F 86% 29.95 in 2.5 mi NNW 12.7 mph - N/A Snow Light Snow
10:56 PM 30.2 °F 20.8 °F 26.6 °F 86% 29.95 in 1.5 mi NW 11.5 mph - N/A Snow Light Snow
11:36 PM 30.2 °F 21.9 °F 26.6 °F 86% 29.95 in 1.8 mi NW 9.2 mph - N/A Snow Light Snow
11:56 PM 30.2 °F 21.3 °F 26.6 °F 86% 29.95 in 2.5 mi NW 10.4 mph - N/A Snow Light Snow